UPSVAC Airport Information Service

Orlando International Airport

ICAO: KMCO Country: United States
Latitude: 28.4294 Longitude: -81.3089
Latest Arrival : UPS1840 (KSDF-KMCO) Latest Departure : UPS2380 (KMCO-KCAE)


WX CaptureLIVE
Data provided by noaa.gov | Fetched at 17:00:28

METAR : KMCO 191653Z VRB03KT 10SM FEW034 FEW060 SCT140 BKN250 31/23 A3003 RMK AO2 SLP166 T03060228

TAF : KMCO 191459Z 1915/2018 VRB05KT P6SM FEW025 SCT035 BKN250 FM191900 VRB05KT P6SM VCTS SCT040CB BKN070 TEMPO 1920/1924 3SM TSRA BKN025CB BKN050 FM200000 VRB05KT P6SM -RA VCTS SCT025CB BKN040 BKN250 FM200200 VRB03KT P6SM FEW025 SCT040 BKN100 FM200600 VRB02KT P6SM SCT008 SCT180 BKN200 FM201500 21005KT P6SM FEW015 SCT030 BKN250


Runway Data for KMCO
Data provided by openaviationdata.com

Runway ID Mag Var Hdg Length Elevation Surface ILS Freq ILS Id ILS Slope
17L -5 184° 9025 ft 96 ft Concrete 110.95 IARK 3
17R -5 184° 10027 ft 96 ft Concrete 111.75 IDIZ 3
18L -5 184° 12037 ft 96 ft Asphalt -- -- --
18R -5 184° 12037 ft 96 ft Concrete 111.9 ITFE 3
35L -5 10027 ft 96 ft Concrete 110.5 IDDO 3
35R -5 9025 ft 96 ft Concrete 111.15 ICER 3
36L -5 12037 ft 96 ft Concrete -- -- --
36R -5 12037 ft 96 ft Asphalt 110.7 IOJP 3

Orlando International Airport, United States
Use only for reference purposes



Not for navigational purposes.